sensor_id;sensor_type;location;lat;lon;timestamp;temperature;humidity
463;DHT22;218;51.902;9.542;2023-07-13T00:01:44;21.90;1.00
463;DHT22;218;51.902;9.542;2023-07-13T00:04:16;21.90;1.00
463;DHT22;218;51.902;9.542;2023-07-13T00:09:12;21.80;1.00
463;DHT22;218;51.902;9.542;2023-07-13T00:11:39;21.80;1.00
463;DHT22;218;51.902;9.542;2023-07-13T00:14:07;21.80;1.00
463;DHT22;218;51.902;9.542;2023-07-13T00:16:35;21.80;1.00
463;DHT22;218;51.902;9.542;2023-07-13T00:19:02;21.70;1.00
463;DHT22;218;51.902;9.542;2023-07-13T00:21:29;21.70;1.00
463;DHT22;218;51.902;9.542;2023-07-13T00:23:58;21.70;1.00
463;DHT22;218;51.902;9.542;2023-07-13T00:28:54;21.50;1.00
463;DHT22;218;51.902;9.542;2023-07-13T00:31:20;21.50;1.00
463;DHT22;218;51.902;9.542;2023-07-13T00:33:47;21.40;1.00
463;DHT22;218;51.902;9.542;2023-07-13T00:36:15;21.40;1.00
463;DHT22;218;51.902;9.542;2023-07-13T00:38:42;21.30;1.00
463;DHT22;218;51.902;9.542;2023-07-13T00:43:38;21.10;1.00
463;DHT22;218;51.902;9.542;2023-07-13T00:53:57;20.70;1.00
463;DHT22;218;51.902;9.542;2023-07-13T00:56:26;20.60;1.00
463;DHT22;218;51.902;9.542;2023-07-13T01:01:21;20.50;1.00
463;DHT22;218;51.902;9.542;2023-07-13T01:16:15;20.20;1.00
463;DHT22;218;51.902;9.542;2023-07-13T01:21:13;20.00;1.00
463;DHT22;218;51.902;9.542;2023-07-13T01:23:40;20.00;1.00
463;DHT22;218;51.902;9.542;2023-07-13T01:31:03;19.90;1.00
463;DHT22;218;51.902;9.542;2023-07-13T01:45:48;19.70;1.00
463;DHT22;218;51.902;9.542;2023-07-13T01:50:42;19.80;1.00
463;DHT22;218;51.902;9.542;2023-07-13T01:53:09;19.90;1.00
463;DHT22;218;51.902;9.542;2023-07-13T01:58:05;19.60;1.00
463;DHT22;218;51.902;9.542;2023-07-13T02:00:32;19.50;1.00
463;DHT22;218;51.902;9.542;2023-07-13T02:05:26;19.50;1.00
463;DHT22;218;51.902;9.542;2023-07-13T02:12:50;19.50;1.00
463;DHT22;218;51.902;9.542;2023-07-13T02:27:33;19.50;1.00
463;DHT22;218;51.902;9.542;2023-07-13T02:32:29;19.10;1.00
463;DHT22;218;51.902;9.542;2023-07-13T02:37:23;18.80;1.00
463;DHT22;218;51.902;9.542;2023-07-13T02:39:50;18.80;1.00
463;DHT22;218;51.902;9.542;2023-07-13T02:42:17;18.70;1.00
463;DHT22;218;51.902;9.542;2023-07-13T02:57:01;18.40;1.00
463;DHT22;218;51.902;9.542;2023-07-13T02:59:28;18.50;1.00
463;DHT22;218;51.902;9.542;2023-07-13T03:01:55;18.70;1.00
463;DHT22;218;51.902;9.542;2023-07-13T03:06:50;18.60;1.00
463;DHT22;218;51.902;9.542;2023-07-13T03:24:01;19.20;1.00
463;DHT22;218;51.902;9.542;2023-07-13T03:36:24;18.40;1.00
463;DHT22;218;51.902;9.542;2023-07-13T03:38:54;18.40;1.00
463;DHT22;218;51.902;9.542;2023-07-13T03:58:45;18.10;1.00
463;DHT22;218;51.902;9.542;2023-07-13T04:01:13;18.00;1.00
463;DHT22;218;51.902;9.542;2023-07-13T04:06:16;18.20;1.00
463;DHT22;218;51.902;9.542;2023-07-13T04:16:10;18.00;1.00
463;DHT22;218;51.902;9.542;2023-07-13T04:21:04;17.70;1.00
463;DHT22;218;51.902;9.542;2023-07-13T05:02:56;18.50;1.00
463;DHT22;218;51.902;9.542;2023-07-13T05:05:26;18.50;1.00
463;DHT22;218;51.902;9.542;2023-07-13T05:20:09;18.70;1.00
463;DHT22;218;51.902;9.542;2023-07-13T05:42:17;19.00;1.00
463;DHT22;218;51.902;9.542;2023-07-13T05:54:34;19.60;1.00
463;DHT22;218;51.902;9.542;2023-07-13T06:04:24;19.90;1.00
463;DHT22;218;51.902;9.542;2023-07-13T06:09:18;20.00;1.00
463;DHT22;218;51.902;9.542;2023-07-13T06:11:45;20.10;1.00
463;DHT22;218;51.902;9.542;2023-07-13T06:19:08;20.40;1.00
463;DHT22;218;51.902;9.542;2023-07-13T06:21:34;20.70;1.00
463;DHT22;218;51.902;9.542;2023-07-13T06:24:01;20.90;1.00
463;DHT22;218;51.902;9.542;2023-07-13T06:36:18;21.30;1.00
463;DHT22;218;51.902;9.542;2023-07-13T06:38:45;21.40;1.00
463;DHT22;218;51.902;9.542;2023-07-13T06:43:39;21.40;1.00
463;DHT22;218;51.902;9.542;2023-07-13T06:46:07;21.60;1.00
463;DHT22;218;51.902;9.542;2023-07-13T06:48:35;21.60;1.00
463;DHT22;218;51.902;9.542;2023-07-13T06:51:03;21.70;1.00
463;DHT22;218;51.902;9.542;2023-07-13T06:53:30;21.70;1.00
463;DHT22;218;51.902;9.542;2023-07-13T06:55:57;21.80;1.00
463;DHT22;218;51.902;9.542;2023-07-13T06:58:23;21.80;1.00
463;DHT22;218;51.902;9.542;2023-07-13T07:05:46;21.90;1.00
463;DHT22;218;51.902;9.542;2023-07-13T07:08:13;21.90;1.00
463;DHT22;218;51.902;9.542;2023-07-13T07:10:40;22.00;1.00
463;DHT22;218;51.902;9.542;2023-07-13T07:13:07;22.00;1.00
463;DHT22;218;51.902;9.542;2023-07-13T07:15:34;22.10;1.00
463;DHT22;218;51.902;9.542;2023-07-13T07:18:02;22.10;1.00
463;DHT22;218;51.902;9.542;2023-07-13T07:20:28;22.20;1.00
463;DHT22;218;51.902;9.542;2023-07-13T07:22:57;22.30;1.00
463;DHT22;218;51.902;9.542;2023-07-13T07:25:24;22.40;1.00
463;DHT22;218;51.902;9.542;2023-07-13T07:27:51;22.40;1.00
463;DHT22;218;51.902;9.542;2023-07-13T07:30:18;22.40;1.00
463;DHT22;218;51.902;9.542;2023-07-13T07:32:45;22.60;1.00
463;DHT22;218;51.902;9.542;2023-07-13T07:35:12;22.60;1.00
463;DHT22;218;51.902;9.542;2023-07-13T07:37:38;22.80;1.00
463;DHT22;218;51.902;9.542;2023-07-13T07:40:08;22.90;1.00
463;DHT22;218;51.902;9.542;2023-07-13T07:42:34;23.00;1.00
463;DHT22;218;51.902;9.542;2023-07-13T07:45:02;23.00;1.00
463;DHT22;218;51.902;9.542;2023-07-13T07:47:28;23.20;1.00
463;DHT22;218;51.902;9.542;2023-07-13T07:49:55;23.30;1.00
463;DHT22;218;51.902;9.542;2023-07-13T07:52:22;23.30;1.00
463;DHT22;218;51.902;9.542;2023-07-13T07:54:49;23.40;1.00
463;DHT22;218;51.902;9.542;2023-07-13T07:57:17;23.50;1.00
463;DHT22;218;51.902;9.542;2023-07-13T07:59:44;23.50;1.00
463;DHT22;218;51.902;9.542;2023-07-13T08:02:11;23.60;1.00
463;DHT22;218;51.902;9.542;2023-07-13T08:04:38;23.60;1.00
463;DHT22;218;51.902;9.542;2023-07-13T08:07:05;23.60;1.00
463;DHT22;218;51.902;9.542;2023-07-13T08:09:32;23.70;1.00
463;DHT22;218;51.902;9.542;2023-07-13T08:11:59;23.80;1.00
463;DHT22;218;51.902;9.542;2023-07-13T08:14:28;23.90;1.00
463;DHT22;218;51.902;9.542;2023-07-13T08:16:55;24.00;1.00
463;DHT22;218;51.902;9.542;2023-07-13T08:19:22;24.10;1.00
463;DHT22;218;51.902;9.542;2023-07-13T08:21:48;24.20;1.00
463;DHT22;218;51.902;9.542;2023-07-13T08:24:15;24.30;1.00
463;DHT22;218;51.902;9.542;2023-07-13T08:26:44;24.40;1.00
463;DHT22;218;51.902;9.542;2023-07-13T08:29:11;24.50;1.00
463;DHT22;218;51.902;9.542;2023-07-13T08:31:39;24.60;1.00
463;DHT22;218;51.902;9.542;2023-07-13T08:34:06;24.70;1.00
463;DHT22;218;51.902;9.542;2023-07-13T08:36:33;24.70;1.00
463;DHT22;218;51.902;9.542;2023-07-13T08:39:00;24.80;1.00
463;DHT22;218;51.902;9.542;2023-07-13T08:41:27;24.90;1.00
463;DHT22;218;51.902;9.542;2023-07-13T08:43:57;25.00;1.00
463;DHT22;218;51.902;9.542;2023-07-13T08:46:28;25.00;1.00
463;DHT22;218;51.902;9.542;2023-07-13T08:48:59;25.10;1.00
463;DHT22;218;51.902;9.542;2023-07-13T08:51:32;25.20;1.00
463;DHT22;218;51.902;9.542;2023-07-13T08:54:02;25.30;1.00
463;DHT22;218;51.902;9.542;2023-07-13T08:56:31;25.40;1.00
463;DHT22;218;51.902;9.542;2023-07-13T08:59:02;25.50;1.00
463;DHT22;218;51.902;9.542;2023-07-13T09:01:46;25.50;1.00
463;DHT22;218;51.902;9.542;2023-07-13T09:04:18;25.70;1.00
463;DHT22;218;51.902;9.542;2023-07-13T09:06:59;25.70;1.00
463;DHT22;218;51.902;9.542;2023-07-13T09:09:38;25.80;1.00
463;DHT22;218;51.902;9.542;2023-07-13T09:12:12;25.90;1.00
463;DHT22;218;51.902;9.542;2023-07-13T09:14:47;26.00;1.00
463;DHT22;218;51.902;9.542;2023-07-13T09:17:18;26.00;1.00
463;DHT22;218;51.902;9.542;2023-07-13T09:19:53;26.10;1.00
463;DHT22;218;51.902;9.542;2023-07-13T09:22:21;26.20;1.00
463;DHT22;218;51.902;9.542;2023-07-13T09:24:55;26.30;1.00
463;DHT22;218;51.902;9.542;2023-07-13T09:27:30;26.40;1.00
463;DHT22;218;51.902;9.542;2023-07-13T09:30:15;26.50;1.00
463;DHT22;218;51.902;9.542;2023-07-13T09:32:50;26.50;1.00
463;DHT22;218;51.902;9.542;2023-07-13T09:35:20;26.60;1.00
463;DHT22;218;51.902;9.542;2023-07-13T09:37:48;26.70;1.00
463;DHT22;218;51.902;9.542;2023-07-13T09:40:22;26.80;1.00
463;DHT22;218;51.902;9.542;2023-07-13T09:42:52;26.80;1.00
463;DHT22;218;51.902;9.542;2023-07-13T09:45:27;26.90;1.00
463;DHT22;218;51.902;9.542;2023-07-13T09:47:59;27.00;1.00
463;DHT22;218;51.902;9.542;2023-07-13T09:50:31;27.00;1.00
463;DHT22;218;51.902;9.542;2023-07-13T09:52:58;27.00;1.00
463;DHT22;218;51.902;9.542;2023-07-13T09:55:30;27.10;1.00
463;DHT22;218;51.902;9.542;2023-07-13T09:57:59;27.20;1.00
463;DHT22;218;51.902;9.542;2023-07-13T10:00:30;27.20;1.00
463;DHT22;218;51.902;9.542;2023-07-13T10:02:59;27.20;1.00
463;DHT22;218;51.902;9.542;2023-07-13T10:05:27;27.30;1.00
463;DHT22;218;51.902;9.542;2023-07-13T10:07:56;27.40;1.00
463;DHT22;218;51.902;9.542;2023-07-13T10:10:23;27.40;1.00
463;DHT22;218;51.902;9.542;2023-07-13T10:12:50;27.60;1.00
463;DHT22;218;51.902;9.542;2023-07-13T10:15:20;27.60;1.00
463;DHT22;218;51.902;9.542;2023-07-13T10:17:48;27.70;1.00
463;DHT22;218;51.902;9.542;2023-07-13T10:20:16;27.80;1.00
463;DHT22;218;51.902;9.542;2023-07-13T10:22:47;27.80;1.00
463;DHT22;218;51.902;9.542;2023-07-13T10:25:22;27.90;1.00
463;DHT22;218;51.902;9.542;2023-07-13T10:27:51;27.90;1.00
463;DHT22;218;51.902;9.542;2023-07-13T10:30:21;27.90;1.00
463;DHT22;218;51.902;9.542;2023-07-13T10:32:51;28.00;1.00
463;DHT22;218;51.902;9.542;2023-07-13T10:35:20;28.00;1.00
463;DHT22;218;51.902;9.542;2023-07-13T10:37:52;28.00;1.00
463;DHT22;218;51.902;9.542;2023-07-13T10:40:25;28.00;1.00
463;DHT22;218;51.902;9.542;2023-07-13T10:42:56;28.00;1.00
463;DHT22;218;51.902;9.542;2023-07-13T10:45:25;28.00;1.00
463;DHT22;218;51.902;9.542;2023-07-13T10:47:54;28.00;1.00
463;DHT22;218;51.902;9.542;2023-07-13T10:50:23;28.00;1.00
463;DHT22;218;51.902;9.542;2023-07-13T10:52:53;28.10;1.00
463;DHT22;218;51.902;9.542;2023-07-13T10:55:37;28.10;1.00
463;DHT22;218;51.902;9.542;2023-07-13T10:58:13;28.20;1.00
463;DHT22;218;51.902;9.542;2023-07-13T11:00:47;28.30;1.00
463;DHT22;218;51.902;9.542;2023-07-13T11:03:18;28.50;1.00
463;DHT22;218;51.902;9.542;2023-07-13T11:05:49;28.60;1.00
463;DHT22;218;51.902;9.542;2023-07-13T11:08:20;28.70;1.00
463;DHT22;218;51.902;9.542;2023-07-13T11:10:52;28.80;1.00
463;DHT22;218;51.902;9.542;2023-07-13T11:13:57;28.80;1.00
463;DHT22;218;51.902;9.542;2023-07-13T11:16:46;28.90;1.00
463;DHT22;218;51.902;9.542;2023-07-13T11:19:40;28.90;1.00
463;DHT22;218;51.902;9.542;2023-07-13T11:22:13;28.90;1.00
463;DHT22;218;51.902;9.542;2023-07-13T11:24:57;28.90;1.00
463;DHT22;218;51.902;9.542;2023-07-13T11:27:41;28.90;1.00
463;DHT22;218;51.902;9.542;2023-07-13T11:30:24;28.90;1.00
463;DHT22;218;51.902;9.542;2023-07-13T11:33:03;29.00;1.00
463;DHT22;218;51.902;9.542;2023-07-13T11:35:34;29.00;1.00
463;DHT22;218;51.902;9.542;2023-07-13T11:38:03;29.10;1.00
463;DHT22;218;51.902;9.542;2023-07-13T11:40:35;29.20;1.00
463;DHT22;218;51.902;9.542;2023-07-13T11:43:06;29.20;1.00
463;DHT22;218;51.902;9.542;2023-07-13T11:45:33;29.30;1.00
463;DHT22;218;51.902;9.542;2023-07-13T11:48:01;29.40;1.00
463;DHT22;218;51.902;9.542;2023-07-13T11:50:28;29.50;1.00
463;DHT22;218;51.902;9.542;2023-07-13T11:52:57;29.50;1.00
463;DHT22;218;51.902;9.542;2023-07-13T11:55:25;29.60;1.00
463;DHT22;218;51.902;9.542;2023-07-13T11:57:57;29.70;1.00
463;DHT22;218;51.902;9.542;2023-07-13T12:00:29;29.70;1.00
463;DHT22;218;51.902;9.542;2023-07-13T12:03:00;29.80;1.00
463;DHT22;218;51.902;9.542;2023-07-13T12:05:28;29.80;1.00
463;DHT22;218;51.902;9.542;2023-07-13T12:07:56;29.90;1.00
463;DHT22;218;51.902;9.542;2023-07-13T12:10:25;29.90;1.00
463;DHT22;218;51.902;9.542;2023-07-13T12:12:56;29.90;1.00
463;DHT22;218;51.902;9.542;2023-07-13T12:15:28;30.00;1.00
463;DHT22;218;51.902;9.542;2023-07-13T12:17:57;30.00;1.00
463;DHT22;218;51.902;9.542;2023-07-13T12:20:35;30.00;1.00
463;DHT22;218;51.902;9.542;2023-07-13T12:23:05;30.00;1.00
463;DHT22;218;51.902;9.542;2023-07-13T12:25:32;30.00;1.00
463;DHT22;218;51.902;9.542;2023-07-13T12:27:59;30.00;1.00
463;DHT22;218;51.902;9.542;2023-07-13T12:30:48;29.90;1.00
463;DHT22;218;51.902;9.542;2023-07-13T12:33:16;29.90;1.00
463;DHT22;218;51.902;9.542;2023-07-13T12:35:46;29.90;1.00
463;DHT22;218;51.902;9.542;2023-07-13T12:38:14;30.00;1.00
463;DHT22;218;51.902;9.542;2023-07-13T12:40:42;30.00;1.00
463;DHT22;218;51.902;9.542;2023-07-13T12:43:12;29.90;1.00
463;DHT22;218;51.902;9.542;2023-07-13T12:45:39;29.90;1.00
463;DHT22;218;51.902;9.542;2023-07-13T12:48:22;29.90;1.00
463;DHT22;218;51.902;9.542;2023-07-13T12:50:50;29.90;1.00
463;DHT22;218;51.902;9.542;2023-07-13T12:53:20;30.00;1.00
463;DHT22;218;51.902;9.542;2023-07-13T12:55:49;30.00;1.00
463;DHT22;218;51.902;9.542;2023-07-13T12:58:21;30.00;1.00
463;DHT22;218;51.902;9.542;2023-07-13T13:00:51;29.90;1.00
463;DHT22;218;51.902;9.542;2023-07-13T13:03:28;29.90;1.00
463;DHT22;218;51.902;9.542;2023-07-13T13:06:02;29.90;1.00
463;DHT22;218;51.902;9.542;2023-07-13T13:08:31;29.90;1.00
463;DHT22;218;51.902;9.542;2023-07-13T13:10:58;29.80;1.00
463;DHT22;218;51.902;9.542;2023-07-13T13:13:25;29.70;1.00
463;DHT22;218;51.902;9.542;2023-07-13T13:15:52;29.60;1.00
463;DHT22;218;51.902;9.542;2023-07-13T13:18:20;29.60;1.00
463;DHT22;218;51.902;9.542;2023-07-13T13:20:50;29.50;1.00
463;DHT22;218;51.902;9.542;2023-07-13T13:23:18;29.40;1.00
463;DHT22;218;51.902;9.542;2023-07-13T13:25:46;29.40;1.00
463;DHT22;218;51.902;9.542;2023-07-13T13:28:14;29.40;1.00
463;DHT22;218;51.902;9.542;2023-07-13T13:30:43;29.50;1.00
463;DHT22;218;51.902;9.542;2023-07-13T13:33:11;29.50;1.00
463;DHT22;218;51.902;9.542;2023-07-13T13:35:39;29.50;1.00
463;DHT22;218;51.902;9.542;2023-07-13T13:38:13;29.50;1.00
463;DHT22;218;51.902;9.542;2023-07-13T13:40:41;29.60;1.00
463;DHT22;218;51.902;9.542;2023-07-13T13:43:15;29.50;1.00
463;DHT22;218;51.902;9.542;2023-07-13T13:45:43;29.50;1.00
463;DHT22;218;51.902;9.542;2023-07-13T13:48:15;29.50;1.00
463;DHT22;218;51.902;9.542;2023-07-13T13:50:42;29.50;1.00
463;DHT22;218;51.902;9.542;2023-07-13T13:53:13;29.50;1.00
463;DHT22;218;51.902;9.542;2023-07-13T13:55:41;29.40;1.00
463;DHT22;218;51.902;9.542;2023-07-13T13:58:11;29.40;1.00
463;DHT22;218;51.902;9.542;2023-07-13T14:00:38;29.30;1.00
463;DHT22;218;51.902;9.542;2023-07-13T14:03:05;29.30;1.00
463;DHT22;218;51.902;9.542;2023-07-13T14:05:35;29.20;1.00
463;DHT22;218;51.902;9.542;2023-07-13T14:08:02;29.20;1.00
463;DHT22;218;51.902;9.542;2023-07-13T14:10:30;29.10;1.00
463;DHT22;218;51.902;9.542;2023-07-13T14:12:57;29.10;1.00
463;DHT22;218;51.902;9.542;2023-07-13T14:15:28;29.10;1.00
463;DHT22;218;51.902;9.542;2023-07-13T14:17:56;29.10;1.00
463;DHT22;218;51.902;9.542;2023-07-13T14:20:25;29.00;1.00
463;DHT22;218;51.902;9.542;2023-07-13T14:22:52;29.10;1.00
463;DHT22;218;51.902;9.542;2023-07-13T14:25:21;29.10;1.00
463;DHT22;218;51.902;9.542;2023-07-13T14:27:58;29.20;1.00
463;DHT22;218;51.902;9.542;2023-07-13T14:30:26;29.20;1.00
463;DHT22;218;51.902;9.542;2023-07-13T14:32:56;29.20;1.00
463;DHT22;218;51.902;9.542;2023-07-13T14:35:23;29.20;1.00
463;DHT22;218;51.902;9.542;2023-07-13T14:37:50;29.20;1.00
463;DHT22;218;51.902;9.542;2023-07-13T14:40:21;29.20;1.00
463;DHT22;218;51.902;9.542;2023-07-13T14:42:49;29.10;1.00
463;DHT22;218;51.902;9.542;2023-07-13T14:45:20;29.10;1.00
463;DHT22;218;51.902;9.542;2023-07-13T14:47:47;29.00;1.00
463;DHT22;218;51.902;9.542;2023-07-13T14:50:16;28.90;1.00
463;DHT22;218;51.902;9.542;2023-07-13T14:52:44;28.80;1.00
463;DHT22;218;51.902;9.542;2023-07-13T14:55:12;28.80;1.00
463;DHT22;218;51.902;9.542;2023-07-13T14:57:39;28.80;1.00
463;DHT22;218;51.902;9.542;2023-07-13T15:00:13;28.90;1.00
463;DHT22;218;51.902;9.542;2023-07-13T15:02:43;28.90;1.00
463;DHT22;218;51.902;9.542;2023-07-13T15:05:17;29.00;1.00
463;DHT22;218;51.902;9.542;2023-07-13T15:07:45;29.10;1.00
463;DHT22;218;51.902;9.542;2023-07-13T15:10:14;29.10;1.00
463;DHT22;218;51.902;9.542;2023-07-13T15:12:41;29.20;1.00
463;DHT22;218;51.902;9.542;2023-07-13T15:15:08;29.10;1.00
463;DHT22;218;51.902;9.542;2023-07-13T15:17:36;29.00;1.00
463;DHT22;218;51.902;9.542;2023-07-13T15:20:16;28.90;1.00
463;DHT22;218;51.902;9.542;2023-07-13T15:22:45;28.70;1.00
463;DHT22;218;51.902;9.542;2023-07-13T15:25:17;28.50;1.00
463;DHT22;218;51.902;9.542;2023-07-13T15:27:44;28.30;1.00
463;DHT22;218;51.902;9.542;2023-07-13T15:30:12;28.10;1.00
463;DHT22;218;51.902;9.542;2023-07-13T15:32:40;28.00;1.00
463;DHT22;218;51.902;9.542;2023-07-13T15:35:16;27.90;1.00
463;DHT22;218;51.902;9.542;2023-07-13T15:37:43;27.70;1.00
463;DHT22;218;51.902;9.542;2023-07-13T15:40:12;27.50;1.00
463;DHT22;218;51.902;9.542;2023-07-13T15:42:39;27.40;1.00
463;DHT22;218;51.902;9.542;2023-07-13T15:45:18;27.20;1.00
463;DHT22;218;51.902;9.542;2023-07-13T15:47:46;27.10;1.00
463;DHT22;218;51.902;9.542;2023-07-13T15:50:18;26.90;1.00
463;DHT22;218;51.902;9.542;2023-07-13T15:52:47;26.70;1.00
463;DHT22;218;51.902;9.542;2023-07-13T15:55:15;26.60;1.00
463;DHT22;218;51.902;9.542;2023-07-13T15:57:48;26.40;1.00
463;DHT22;218;51.902;9.542;2023-07-13T16:00:21;26.20;1.00
463;DHT22;218;51.902;9.542;2023-07-13T16:02:48;26.10;1.00
463;DHT22;218;51.902;9.542;2023-07-13T16:05:18;25.90;1.00
463;DHT22;218;51.902;9.542;2023-07-13T16:07:47;25.80;1.00
463;DHT22;218;51.902;9.542;2023-07-13T16:10:16;25.60;1.00
463;DHT22;218;51.902;9.542;2023-07-13T16:12:44;25.50;1.00
463;DHT22;218;51.902;9.542;2023-07-13T16:15:13;25.40;1.00
463;DHT22;218;51.902;9.542;2023-07-13T16:17:42;25.30;1.00
463;DHT22;218;51.902;9.542;2023-07-13T16:20:10;25.20;1.00
463;DHT22;218;51.902;9.542;2023-07-13T16:22:41;25.20;1.00
463;DHT22;218;51.902;9.542;2023-07-13T16:25:14;25.10;1.00
463;DHT22;218;51.902;9.542;2023-07-13T16:27:41;25.10;1.00
463;DHT22;218;51.902;9.542;2023-07-13T16:30:13;25.00;1.00
463;DHT22;218;51.902;9.542;2023-07-13T16:32:42;25.00;1.00
463;DHT22;218;51.902;9.542;2023-07-13T16:35:09;24.90;1.00
463;DHT22;218;51.902;9.542;2023-07-13T16:37:37;24.80;1.00
463;DHT22;218;51.902;9.542;2023-07-13T16:40:19;24.80;1.00
463;DHT22;218;51.902;9.542;2023-07-13T16:42:48;24.70;1.00
463;DHT22;218;51.902;9.542;2023-07-13T16:45:17;24.70;1.00
463;DHT22;218;51.902;9.542;2023-07-13T16:47:46;24.60;1.00
463;DHT22;218;51.902;9.542;2023-07-13T16:50:15;24.50;1.00
463;DHT22;218;51.902;9.542;2023-07-13T16:52:42;24.40;1.00
463;DHT22;218;51.902;9.542;2023-07-13T16:55:13;24.30;1.00
463;DHT22;218;51.902;9.542;2023-07-13T16:57:43;24.20;1.00
463;DHT22;218;51.902;9.542;2023-07-13T17:00:19;24.20;1.00
463;DHT22;218;51.902;9.542;2023-07-13T17:02:49;24.10;1.00
463;DHT22;218;51.902;9.542;2023-07-13T17:05:18;24.00;1.00
463;DHT22;218;51.902;9.542;2023-07-13T17:07:45;24.00;1.00
463;DHT22;218;51.902;9.542;2023-07-13T17:10:23;23.90;1.00
463;DHT22;218;51.902;9.542;2023-07-13T17:12:51;23.80;1.00
463;DHT22;218;51.902;9.542;2023-07-13T17:15:18;23.70;1.00
463;DHT22;218;51.902;9.542;2023-07-13T17:17:47;23.70;1.00
463;DHT22;218;51.902;9.542;2023-07-13T17:20:22;23.60;1.00
463;DHT22;218;51.902;9.542;2023-07-13T17:22:51;23.60;1.00
463;DHT22;218;51.902;9.542;2023-07-13T17:25:19;23.50;1.00
463;DHT22;218;51.902;9.542;2023-07-13T17:27:48;23.50;1.00
463;DHT22;218;51.902;9.542;2023-07-13T17:30:17;23.50;1.00
463;DHT22;218;51.902;9.542;2023-07-13T17:32:45;23.50;1.00
463;DHT22;218;51.902;9.542;2023-07-13T17:35:24;23.50;1.00
463;DHT22;218;51.902;9.542;2023-07-13T17:37:52;23.40;1.00
463;DHT22;218;51.902;9.542;2023-07-13T17:40:20;23.40;1.00
463;DHT22;218;51.902;9.542;2023-07-13T17:42:49;23.30;1.00
463;DHT22;218;51.902;9.542;2023-07-13T17:45:21;23.30;1.00
463;DHT22;218;51.902;9.542;2023-07-13T17:47:49;23.30;1.00
463;DHT22;218;51.902;9.542;2023-07-13T17:50:25;23.30;1.00
463;DHT22;218;51.902;9.542;2023-07-13T17:52:53;23.30;1.00
463;DHT22;218;51.902;9.542;2023-07-13T17:55:21;23.30;1.00
463;DHT22;218;51.902;9.542;2023-07-13T17:57:50;23.30;1.00
463;DHT22;218;51.902;9.542;2023-07-13T18:00:19;23.20;1.00
463;DHT22;218;51.902;9.542;2023-07-13T18:03:03;23.20;1.00
463;DHT22;218;51.902;9.542;2023-07-13T18:05:32;23.20;1.00
463;DHT22;218;51.902;9.542;2023-07-13T18:08:01;23.20;1.00
463;DHT22;218;51.902;9.542;2023-07-13T18:10:32;23.20;1.00
463;DHT22;218;51.902;9.542;2023-07-13T18:13:01;23.10;1.00
463;DHT22;218;51.902;9.542;2023-07-13T18:15:29;23.10;1.00
463;DHT22;218;51.902;9.542;2023-07-13T18:17:59;23.10;1.00
463;DHT22;218;51.902;9.542;2023-07-13T18:20:29;23.10;1.00
463;DHT22;218;51.902;9.542;2023-07-13T18:22:57;23.10;1.00
463;DHT22;218;51.902;9.542;2023-07-13T18:25:25;23.10;1.00
463;DHT22;218;51.902;9.542;2023-07-13T18:27:52;23.10;1.00
463;DHT22;218;51.902;9.542;2023-07-13T18:30:22;23.10;1.00
463;DHT22;218;51.902;9.542;2023-07-13T18:32:51;23.10;1.00
463;DHT22;218;51.902;9.542;2023-07-13T18:35:23;23.00;1.00
463;DHT22;218;51.902;9.542;2023-07-13T18:37:53;23.00;1.00
463;DHT22;218;51.902;9.542;2023-07-13T18:42:50;23.00;1.00
463;DHT22;218;51.902;9.542;2023-07-13T18:45:18;23.00;1.00
463;DHT22;218;51.902;9.542;2023-07-13T18:47:50;23.00;1.00
463;DHT22;218;51.902;9.542;2023-07-13T18:50:20;23.00;1.00
463;DHT22;218;51.902;9.542;2023-07-13T18:52:49;23.00;1.00
463;DHT22;218;51.902;9.542;2023-07-13T18:55:17;22.90;1.00
463;DHT22;218;51.902;9.542;2023-07-13T18:57:44;22.90;1.00
463;DHT22;218;51.902;9.542;2023-07-13T19:00:13;22.90;1.00
463;DHT22;218;51.902;9.542;2023-07-13T19:02:41;22.80;1.00
463;DHT22;218;51.902;9.542;2023-07-13T19:05:15;22.80;1.00
463;DHT22;218;51.902;9.542;2023-07-13T19:07:43;22.80;1.00
463;DHT22;218;51.902;9.542;2023-07-13T19:10:13;22.70;1.00
463;DHT22;218;51.902;9.542;2023-07-13T19:12:44;22.70;1.00
463;DHT22;218;51.902;9.542;2023-07-13T19:15:19;22.60;1.00
463;DHT22;218;51.902;9.542;2023-07-13T19:17:48;22.60;1.00
463;DHT22;218;51.902;9.542;2023-07-13T19:20:17;22.50;1.00
463;DHT22;218;51.902;9.542;2023-07-13T19:22:49;22.50;1.00
463;DHT22;218;51.902;9.542;2023-07-13T19:25:18;22.50;1.00
463;DHT22;218;51.902;9.542;2023-07-13T19:27:46;22.40;1.00
463;DHT22;218;51.902;9.542;2023-07-13T19:30:14;22.40;1.00
463;DHT22;218;51.902;9.542;2023-07-13T19:35:09;22.30;1.00
463;DHT22;218;51.902;9.542;2023-07-13T19:37:37;22.20;1.00
463;DHT22;218;51.902;9.542;2023-07-13T19:40:14;22.20;1.00
463;DHT22;218;51.902;9.542;2023-07-13T19:42:43;22.10;1.00
463;DHT22;218;51.902;9.542;2023-07-13T19:47:42;22.10;1.00
463;DHT22;218;51.902;9.542;2023-07-13T19:50:11;22.10;1.00
463;DHT22;218;51.902;9.542;2023-07-13T19:52:47;22.10;1.00
463;DHT22;218;51.902;9.542;2023-07-13T19:55:17;22.10;1.00
463;DHT22;218;51.902;9.542;2023-07-13T19:57:45;22.00;1.00
463;DHT22;218;51.902;9.542;2023-07-13T20:00:16;22.00;1.00
463;DHT22;218;51.902;9.542;2023-07-13T20:02:44;22.00;1.00
463;DHT22;218;51.902;9.542;2023-07-13T20:10:18;21.90;1.00
463;DHT22;218;51.902;9.542;2023-07-13T20:12:47;21.90;1.00
463;DHT22;218;51.902;9.542;2023-07-13T20:15:15;21.90;1.00
463;DHT22;218;51.902;9.542;2023-07-13T20:17:43;21.80;1.00
463;DHT22;218;51.902;9.542;2023-07-13T20:22:45;21.80;1.00
463;DHT22;218;51.902;9.542;2023-07-13T20:25:14;21.70;1.00
463;DHT22;218;51.902;9.542;2023-07-13T20:27:42;21.80;1.00
463;DHT22;218;51.902;9.542;2023-07-13T20:30:09;21.80;1.00
463;DHT22;218;51.902;9.542;2023-07-13T20:32:37;21.70;1.00
463;DHT22;218;51.902;9.542;2023-07-13T20:35:05;21.70;1.00
463;DHT22;218;51.902;9.542;2023-07-13T20:40:13;21.70;1.00
463;DHT22;218;51.902;9.542;2023-07-13T20:42:40;21.60;1.00
463;DHT22;218;51.902;9.542;2023-07-13T20:45:08;21.60;1.00
463;DHT22;218;51.902;9.542;2023-07-13T20:47:36;21.60;1.00
463;DHT22;218;51.902;9.542;2023-07-13T20:52:31;21.60;1.00
463;DHT22;218;51.902;9.542;2023-07-13T20:54:58;21.60;1.00
463;DHT22;218;51.902;9.542;2023-07-13T20:57:28;21.50;1.00
463;DHT22;218;51.902;9.542;2023-07-13T20:59:55;21.50;1.00
463;DHT22;218;51.902;9.542;2023-07-13T21:02:31;21.50;1.00
463;DHT22;218;51.902;9.542;2023-07-13T21:05:13;21.50;1.00
463;DHT22;218;51.902;9.542;2023-07-13T21:07:41;21.50;1.00
463;DHT22;218;51.902;9.542;2023-07-13T21:10:16;21.40;1.00
463;DHT22;218;51.902;9.542;2023-07-13T21:12:45;21.50;1.00
463;DHT22;218;51.902;9.542;2023-07-13T21:15:16;21.40;1.00
463;DHT22;218;51.902;9.542;2023-07-13T21:20:20;21.30;1.00
463;DHT22;218;51.902;9.542;2023-07-13T21:22:48;21.40;1.00
463;DHT22;218;51.902;9.542;2023-07-13T21:25:17;21.30;1.00
463;DHT22;218;51.902;9.542;2023-07-13T21:27:48;21.30;1.00
463;DHT22;218;51.902;9.542;2023-07-13T21:30:17;21.30;1.00
463;DHT22;218;51.902;9.542;2023-07-13T21:32:49;21.30;1.00
463;DHT22;218;51.902;9.542;2023-07-13T21:35:31;21.30;1.00
463;DHT22;218;51.902;9.542;2023-07-13T21:37:59;21.30;1.00
463;DHT22;218;51.902;9.542;2023-07-13T21:45:26;21.20;1.00
463;DHT22;218;51.902;9.542;2023-07-13T21:47:54;21.30;1.00
463;DHT22;218;51.902;9.542;2023-07-13T21:50:24;21.30;1.00
463;DHT22;218;51.902;9.542;2023-07-13T21:52:53;21.30;1.00
463;DHT22;218;51.902;9.542;2023-07-13T21:57:52;21.20;1.00
463;DHT22;218;51.902;9.542;2023-07-13T22:00:24;21.20;1.00